createdAt,value
2023-05-10T00:00:17.210Z,100828.16
2023-05-10T00:02:43.917Z,100825.94
2023-05-10T00:05:10.603Z,100826.53
2023-05-10T00:07:37.107Z,100825.72
2023-05-10T00:10:03.711Z,100822.16
2023-05-10T00:12:30.314Z,100821.34
2023-05-10T00:14:56.804Z,100806.94
2023-05-10T00:17:23.327Z,100817.03
2023-05-10T00:19:49.903Z,100827.91
2023-05-10T00:22:16.455Z,100830.34
2023-05-10T00:24:42.932Z,100824.38
2023-05-10T00:27:09.466Z,100820.84
2023-05-10T00:29:35.979Z,100820.56
2023-05-10T00:32:02.556Z,100830.63
2023-05-10T00:34:29.311Z,100825.47
2023-05-10T00:36:55.856Z,100825.47
2023-05-10T00:39:22.352Z,100827.09
2023-05-10T00:41:48.861Z,100829.28
2023-05-10T00:44:15.352Z,100832.00
2023-05-10T00:46:42.864Z,100832.81
2023-05-10T00:49:09.573Z,100846.41
2023-05-10T00:51:36.323Z,100838.53
2023-05-10T00:54:03.650Z,100833.09
2023-05-10T00:56:31.035Z,100835.31
2023-05-10T00:58:58.023Z,100845.09
2023-05-10T01:01:24.758Z,100852.16
2023-05-10T01:03:52.173Z,100848.91
2023-05-10T01:06:18.718Z,100848.91
2023-05-10T01:08:45.312Z,100850.53
2023-05-10T01:11:11.835Z,100841.56
2023-05-10T01:13:40.462Z,100839.91
2023-05-10T01:16:07.868Z,100848.06
2023-05-10T01:18:37.058Z,100848.63
2023-05-10T01:21:17.895Z,100849.72
2023-05-10T01:24:05.607Z,100852.72
2023-05-10T01:26:50.824Z,100857.34
2023-05-10T01:29:45.447Z,100853.00
2023-05-10T01:32:23.342Z,100855.72
2023-05-10T01:35:04.112Z,100865.50
2023-05-10T01:38:08.308Z,100860.06
2023-05-10T01:40:45.257Z,100866.63
2023-05-10T01:43:20.556Z,100869.34
2023-05-10T01:46:05.675Z,100869.34
2023-05-10T01:48:33.781Z,100880.50
2023-05-10T01:51:01.151Z,100882.13
2023-05-10T01:53:29.000Z,100878.06
2023-05-10T01:55:56.524Z,100876.97
2023-05-10T01:58:30.413Z,100872.63
2023-05-10T02:00:59.292Z,100887.03
2023-05-10T02:03:28.544Z,100877.75
2023-05-10T02:05:57.065Z,100874.22
2023-05-10T02:08:24.800Z,100876.16
2023-05-10T02:10:54.557Z,100883.50
2023-05-10T02:13:23.138Z,100886.53
2023-05-10T02:15:51.866Z,100895.19
2023-05-10T02:18:19.274Z,100876.44
2023-05-10T02:20:48.382Z,100887.59
2023-05-10T02:23:16.499Z,100888.41
2023-05-10T02:25:44.911Z,100895.50
2023-05-10T02:28:13.392Z,100891.13
2023-05-10T02:30:40.659Z,100893.59
2023-05-10T02:33:08.753Z,100893.84
2023-05-10T02:35:37.503Z,100900.13
2023-05-10T02:38:05.740Z,100903.09
2023-05-10T02:40:34.541Z,100896.84
2023-05-10T02:43:03.533Z,100902.00
2023-05-10T02:45:32.141Z,100902.31
2023-05-10T02:47:59.563Z,100901.19
2023-05-10T02:50:29.623Z,100905.03
2023-05-10T02:53:04.816Z,100899.88
2023-05-10T02:55:37.514Z,100894.44
2023-05-10T02:58:04.723Z,100901.78
2023-05-10T03:00:32.045Z,100900.69
2023-05-10T03:02:58.855Z,100903.41
2023-05-10T03:05:25.552Z,100909.66
2023-05-10T03:07:53.313Z,100916.47
2023-05-10T03:10:21.017Z,100910.75
2023-05-10T03:13:08.594Z,100908.84
2023-05-10T03:16:09.553Z,100915.38
2023-05-10T03:18:51.772Z,100911.56
2023-05-10T03:21:21.552Z,100909.94
2023-05-10T03:23:52.303Z,100912.94
2023-05-10T03:26:27.726Z,100908.84
2023-05-10T03:28:55.412Z,100909.41
2023-05-10T03:31:22.183Z,100912.94
2023-05-10T03:33:52.940Z,100921.38
2023-05-10T03:36:20.562Z,100911.31
2023-05-10T03:38:47.202Z,100908.59
2023-05-10T03:41:13.868Z,100914.03
2023-05-10T03:43:40.756Z,100915.13
2023-05-10T03:46:07.394Z,100914.28
2023-05-10T03:48:34.428Z,100921.66
2023-05-10T03:51:00.981Z,100918.66
2023-05-10T03:53:28.034Z,100914.28
2023-05-10T03:55:54.568Z,100908.84
2023-05-10T03:58:21.337Z,100918.94
2023-05-10T04:00:47.830Z,100928.19
2023-05-10T04:03:14.746Z,100936.06
2023-05-10T04:05:41.565Z,100933.34
2023-05-10T04:08:08.251Z,100934.44
2023-05-10T04:10:35.291Z,100932.00
2023-05-10T04:13:01.974Z,100948.03
2023-05-10T04:15:28.525Z,100946.69
2023-05-10T04:17:55.144Z,100951.06
2023-05-10T04:20:21.669Z,100935.81
2023-05-10T04:22:48.172Z,100943.72
2023-05-10T04:25:15.121Z,100938.53
2023-05-10T04:27:41.660Z,100945.63
2023-05-10T04:30:08.735Z,100938.25
2023-05-10T04:32:35.370Z,100946.44
2023-05-10T04:35:04.437Z,100942.34
2023-05-10T04:37:30.990Z,100949.41
2023-05-10T04:39:57.537Z,100952.13
2023-05-10T04:42:24.312Z,100942.34
2023-05-10T04:44:50.827Z,100958.94
2023-05-10T04:47:17.453Z,100948.84
2023-05-10T04:49:44.016Z,100951.56
2023-05-10T04:52:10.562Z,100955.16
2023-05-10T04:54:37.253Z,100957.88
2023-05-10T04:57:03.895Z,100956.75
2023-05-10T04:59:30.410Z,100958.69
2023-05-10T05:01:57.132Z,100972.28
2023-05-10T05:04:25.079Z,100966.84
2023-05-10T05:06:53.779Z,100966.28
2023-05-10T05:09:20.878Z,100981.50
2023-05-10T05:11:47.560Z,100976.06
2023-05-10T05:14:14.109Z,100978.78
2023-05-10T05:16:40.744Z,100979.09
2023-05-10T05:19:07.303Z,100982.59
2023-05-10T05:21:33.973Z,100982.59
2023-05-10T05:24:01.139Z,100989.97
2023-05-10T05:26:27.745Z,100982.06
2023-05-10T05:28:55.591Z,100990.78
2023-05-10T05:31:22.443Z,100990.78
2023-05-10T05:33:48.991Z,100995.41
2023-05-10T05:36:15.579Z,100996.47
2023-05-10T05:38:42.089Z,100997.84
2023-05-10T05:41:08.593Z,100998.38
2023-05-10T05:43:38.019Z,100994.84
2023-05-10T05:46:05.061Z,100991.03
2023-05-10T05:48:32.119Z,100999.19
2023-05-10T05:50:58.998Z,100989.41
2023-05-10T05:53:25.923Z,100999.19
2023-05-10T05:55:55.485Z,101003.03
2023-05-10T05:58:23.478Z,101001.41
2023-05-10T06:00:50.765Z,101004.38
2023-05-10T06:03:17.555Z,101001.41
2023-05-10T06:05:44.838Z,101008.75
2023-05-10T06:08:11.593Z,101009.56
2023-05-10T06:10:38.255Z,101007.66
2023-05-10T06:13:05.090Z,101006.56
2023-05-10T06:15:31.593Z,101021.25
2023-05-10T06:17:58.119Z,101014.72
2023-05-10T06:20:24.682Z,101020.97
2023-05-10T06:22:51.277Z,101020.16
2023-05-10T06:25:19.298Z,101023.69
2023-05-10T06:27:49.847Z,101013.91
2023-05-10T06:30:18.574Z,101024.78
2023-05-10T06:32:46.156Z,101020.97
2023-05-10T06:35:12.681Z,101028.31
2023-05-10T06:37:39.276Z,101027.50
2023-05-10T06:40:07.280Z,101029.94
2023-05-10T06:42:33.777Z,101026.41
2023-05-10T06:45:00.269Z,101031.03
2023-05-10T06:47:26.803Z,101034.03
2023-05-10T06:49:53.314Z,101036.47
2023-05-10T06:52:19.842Z,101035.66
2023-05-10T06:54:46.538Z,101026.69
2023-05-10T06:57:30.021Z,101028.31
2023-05-10T06:59:59.032Z,101034.84
2023-05-10T07:02:25.637Z,101031.84
2023-05-10T07:04:53.032Z,101036.47
2023-05-10T07:07:19.992Z,101036.22
2023-05-10T07:09:46.773Z,101040.81
2023-05-10T07:12:15.435Z,101036.47
2023-05-10T07:14:43.042Z,101040.81
2023-05-10T07:17:09.972Z,101043.53
2023-05-10T07:19:36.919Z,101051.72
2023-05-10T07:22:03.787Z,101051.44
2023-05-10T07:24:30.856Z,101052.81
2023-05-10T07:26:57.455Z,101054.72
2023-05-10T07:29:23.985Z,101054.44
2023-05-10T07:31:50.554Z,101059.88
2023-05-10T07:34:17.412Z,101057.16
2023-05-10T07:36:43.931Z,101060.41
2023-05-10T07:39:11.469Z,101060.72
2023-05-10T07:41:39.684Z,101067.22
2023-05-10T07:44:07.008Z,101070.75
2023-05-10T07:46:33.488Z,101069.69
2023-05-10T07:49:00.029Z,101056.09
2023-05-10T07:51:26.554Z,101064.25
2023-05-10T07:53:53.143Z,101059.63
2023-05-10T07:56:23.967Z,101059.63
2023-05-10T07:58:50.681Z,101056.88
2023-05-10T08:01:17.205Z,101067.53
2023-05-10T08:03:43.845Z,101065.88
2023-05-10T08:06:10.481Z,101071.31
2023-05-10T08:08:37.059Z,101081.38
2023-05-10T08:11:04.531Z,101078.66
2023-05-10T08:13:32.397Z,101076.50
2023-05-10T08:15:58.954Z,101071.88
2023-05-10T08:18:25.702Z,101085.47
2023-05-10T08:20:52.219Z,101085.47
2023-05-10T08:23:18.753Z,101092.00
2023-05-10T08:25:45.403Z,101100.97
2023-05-10T08:28:12.032Z,101096.63
2023-05-10T08:30:38.690Z,101098.53
2023-05-10T08:33:05.310Z,101097.44
2023-05-10T08:35:32.530Z,101099.06
2023-05-10T08:37:59.101Z,101100.97
2023-05-10T08:40:27.423Z,101098.53
2023-05-10T08:43:09.867Z,101109.97
2023-05-10T08:45:41.648Z,101108.59
2023-05-10T08:48:10.279Z,101112.44
2023-05-10T08:50:41.892Z,101122.50
2023-05-10T08:53:13.015Z,101118.69
2023-05-10T08:55:41.102Z,101117.88
2023-05-10T08:58:07.932Z,101132.28
2023-05-10T09:00:36.265Z,101131.47
2023-05-10T09:03:04.725Z,101138.81
2023-05-10T09:05:31.696Z,101139.34
2023-05-10T09:08:01.438Z,101137.72
2023-05-10T09:10:28.919Z,101147.50
2023-05-10T09:12:59.285Z,101147.50
2023-05-10T09:15:26.891Z,101143.97
2023-05-10T09:17:53.815Z,101143.97
2023-05-10T09:20:20.649Z,101156.78
2023-05-10T09:22:47.390Z,101151.03
2023-05-10T09:25:18.228Z,101148.31
2023-05-10T09:27:46.861Z,101155.44
2023-05-10T09:30:32.164Z,101160.88
2023-05-10T09:33:00.679Z,101154.88
2023-05-10T09:35:29.869Z,101154.88
2023-05-10T09:37:59.146Z,101156.50
2023-05-10T09:40:27.133Z,101165.50
2023-05-10T09:43:04.087Z,101172.00
2023-05-10T09:45:32.489Z,101175.53
2023-05-10T09:48:00.485Z,101177.19
2023-05-10T09:50:28.683Z,101183.44
2023-05-10T09:53:01.146Z,101179.91
2023-05-10T09:55:40.811Z,101184.25
2023-05-10T09:58:11.835Z,101179.63
2023-05-10T10:00:43.922Z,101178.00
2023-05-10T10:03:15.927Z,101187.78
2023-05-10T10:05:46.279Z,101194.34
2023-05-10T10:08:14.081Z,101189.72
2023-05-10T10:10:41.515Z,101186.16
2023-05-10T10:13:08.794Z,101188.09
2023-05-10T10:15:35.917Z,101194.34
2023-05-10T10:18:04.594Z,101212.28
2023-05-10T10:20:31.236Z,101203.31
2023-05-10T10:22:57.839Z,101201.41
2023-05-10T10:25:26.089Z,101214.19
2023-05-10T10:27:52.541Z,101201.97
2023-05-10T10:30:43.777Z,101197.88
2023-05-10T10:33:41.577Z,101203.03
2023-05-10T10:36:08.735Z,101210.38
2023-05-10T10:39:09.688Z,101197.88
2023-05-10T10:41:45.482Z,101213.66
2023-05-10T10:44:25.360Z,101211.75
2023-05-10T10:47:12.585Z,101209.84
2023-05-10T10:49:45.518Z,101207.69
2023-05-10T10:52:34.311Z,101204.97
2023-05-10T10:55:14.866Z,101207.09
2023-05-10T10:57:41.434Z,101198.69
2023-05-10T11:00:24.196Z,101208.47
2023-05-10T11:02:57.437Z,101215.53
2023-05-10T11:05:27.364Z,101205.50
2023-05-10T11:07:55.838Z,101207.13
2023-05-10T11:10:23.187Z,101208.75
2023-05-10T11:13:09.738Z,101213.66
2023-05-10T11:15:40.354Z,101216.09
2023-05-10T11:18:20.332Z,101213.09
2023-05-10T11:20:53.981Z,101213.91
2023-05-10T11:23:22.013Z,101211.19
2023-05-10T11:25:50.070Z,101209.31
2023-05-10T11:28:19.875Z,101219.09
2023-05-10T11:30:46.870Z,101214.47
2023-05-10T11:33:18.268Z,101220.72
2023-05-10T11:35:44.812Z,101214.47
2023-05-10T11:38:12.488Z,101222.34
2023-05-10T11:40:40.441Z,101223.44
2023-05-10T11:43:07.224Z,101217.19
2023-05-10T11:45:34.581Z,101228.06
2023-05-10T11:48:02.160Z,101228.88
2023-05-10T11:50:28.920Z,101237.06
2023-05-10T11:52:59.877Z,101229.69
2023-05-10T11:55:26.631Z,101222.34
2023-05-10T11:57:54.699Z,101241.41
2023-05-10T12:00:22.186Z,101232.41
2023-05-10T12:02:49.604Z,101229.44
2023-05-10T12:05:16.540Z,101231.34
2023-05-10T12:07:43.281Z,101230.50
2023-05-10T12:10:15.582Z,101243.88
2023-05-10T12:12:44.344Z,101236.50
2023-05-10T12:15:19.282Z,101240.88
2023-05-10T12:17:46.905Z,101233.78
2023-05-10T12:20:24.941Z,101232.69
2023-05-10T12:22:53.996Z,101242.47
2023-05-10T12:25:22.488Z,101235.97
2023-05-10T12:28:01.879Z,101235.44
2023-05-10T12:30:30.090Z,101236.25
2023-05-10T12:33:08.292Z,101241.69
2023-05-10T12:35:45.596Z,101232.13
2023-05-10T12:38:34.397Z,101233.78
2023-05-10T12:41:04.101Z,101241.97
2023-05-10T12:43:31.275Z,101231.06
2023-05-10T12:45:57.894Z,101249.03
2023-05-10T12:48:24.864Z,101239.75
2023-05-10T12:50:51.506Z,101240.56
2023-05-10T12:53:18.001Z,101242.50
2023-05-10T12:55:45.360Z,101250.66
2023-05-10T12:58:15.773Z,101249.56
2023-05-10T13:00:47.851Z,101253.94
2023-05-10T13:03:14.940Z,101261.28
2023-05-10T13:05:41.408Z,101265.66
2023-05-10T13:08:08.063Z,101259.09
2023-05-10T13:10:34.571Z,101259.66
2023-05-10T13:13:01.228Z,101261.28
2023-05-10T13:15:28.023Z,101272.16
2023-05-10T13:17:55.375Z,101271.88
2023-05-10T13:20:22.052Z,101261.00
2023-05-10T13:22:49.202Z,101257.19
2023-05-10T13:25:17.016Z,101257.72
2023-05-10T13:27:43.632Z,101267.81
2023-05-10T13:30:10.711Z,101265.09
2023-05-10T13:32:37.601Z,101270.25
2023-05-10T13:35:04.792Z,101267.53
2023-05-10T13:37:32.505Z,101264.53
2023-05-10T13:39:59.208Z,101269.19
2023-05-10T13:42:25.830Z,101271.09
2023-05-10T13:44:52.593Z,101266.44
2023-05-10T13:47:19.491Z,101269.19
2023-05-10T13:49:46.242Z,101271.91
2023-05-10T13:52:13.118Z,101277.88
2023-05-10T13:54:40.030Z,101275.16
2023-05-10T13:57:07.565Z,101275.16
2023-05-10T13:59:34.131Z,101278.69
2023-05-10T14:02:03.547Z,101273.25
2023-05-10T14:04:30.703Z,101281.16
2023-05-10T14:06:57.485Z,101274.91
2023-05-10T14:09:24.191Z,101284.97
2023-05-10T14:11:50.772Z,101272.97
2023-05-10T14:14:17.248Z,101272.97
2023-05-10T14:16:45.341Z,101268.34
2023-05-10T14:19:12.376Z,101273.78
2023-05-10T14:21:39.252Z,101264.81
2023-05-10T14:24:05.988Z,101264.81
2023-05-10T14:26:32.631Z,101261.53
2023-05-10T14:28:59.930Z,101269.44
2023-05-10T14:31:26.694Z,101263.69
2023-05-10T14:33:54.002Z,101268.88
2023-05-10T14:36:20.577Z,101258.00
2023-05-10T14:38:47.583Z,101264.25
2023-05-10T14:41:16.053Z,101260.44
2023-05-10T14:43:42.768Z,101262.34
2023-05-10T14:46:09.722Z,101267.53
2023-05-10T14:48:36.478Z,101268.59
2023-05-10T14:51:03.018Z,101266.44
2023-05-10T14:53:29.522Z,101268.06
2023-05-10T14:55:56.022Z,101269.16
2023-05-10T14:58:22.541Z,101266.16
2023-05-10T15:00:49.023Z,101269.69
2023-05-10T15:03:16.474Z,101270.50
2023-05-10T15:05:43.500Z,101263.16
2023-05-10T15:08:10.396Z,101263.16
2023-05-10T15:10:37.735Z,101260.16
2023-05-10T15:13:05.484Z,101265.59
2023-05-10T15:15:32.286Z,101267.22
2023-05-10T15:17:58.812Z,101262.88
2023-05-10T15:20:25.837Z,101269.13
2023-05-10T15:22:52.364Z,101268.88
2023-05-10T15:25:19.247Z,101274.31
2023-05-10T15:27:46.071Z,101265.91
2023-05-10T15:30:13.169Z,101273.25
2023-05-10T15:32:41.040Z,101279.53
2023-05-10T15:35:09.636Z,101283.06
2023-05-10T15:37:36.634Z,101287.41
2023-05-10T15:40:05.083Z,101294.75
2023-05-10T15:42:32.874Z,101293.69
2023-05-10T15:44:59.749Z,101296.41
2023-05-10T15:47:26.853Z,101298.03
2023-05-10T15:49:53.477Z,101299.97
2023-05-10T15:52:21.583Z,101307.31
2023-05-10T15:54:48.131Z,101302.69
2023-05-10T15:57:14.650Z,101304.31
2023-05-10T15:59:41.549Z,101312.47
2023-05-10T16:02:10.903Z,101306.22
2023-05-10T16:04:37.906Z,101311.13
2023-05-10T16:07:04.529Z,101314.41
2023-05-10T16:09:31.036Z,101313.84
2023-05-10T16:11:57.616Z,101314.09
2023-05-10T16:14:24.798Z,101315.72
2023-05-10T16:16:51.600Z,101314.66
2023-05-10T16:19:18.619Z,101314.66
2023-05-10T16:21:45.466Z,101320.13
2023-05-10T16:24:12.319Z,101322.03
2023-05-10T16:26:41.085Z,101323.91
2023-05-10T16:29:08.745Z,101324.47
2023-05-10T16:31:35.602Z,101333.44
2023-05-10T16:34:02.422Z,101328.00
2023-05-10T16:36:31.322Z,101329.91
2023-05-10T16:38:58.792Z,101328.81
2023-05-10T16:41:26.444Z,101333.44
2023-05-10T16:43:52.982Z,101340.81
2023-05-10T16:46:19.554Z,101337.81
2023-05-10T16:48:46.165Z,101337.00
2023-05-10T16:51:13.196Z,101339.72
2023-05-10T16:53:39.737Z,101345.16
2023-05-10T16:56:06.697Z,101332.63
2023-05-10T16:58:34.138Z,101332.94
2023-05-10T17:01:00.632Z,101340.81
2023-05-10T17:03:27.374Z,101337.00
2023-05-10T17:05:54.183Z,101337.00
2023-05-10T17:08:22.144Z,101335.38
2023-05-10T17:10:48.758Z,101338.91
2023-05-10T17:13:17.116Z,101336.19
2023-05-10T17:15:45.918Z,101343.25
2023-05-10T17:18:12.614Z,101351.44
2023-05-10T17:20:39.396Z,101349.81
2023-05-10T17:23:06.127Z,101349.00
2023-05-10T17:25:32.630Z,101337.00
2023-05-10T17:27:59.167Z,101347.38
2023-05-10T17:30:28.154Z,101354.16
2023-05-10T17:32:54.775Z,101344.34
2023-05-10T17:35:21.583Z,101353.34
2023-05-10T17:37:48.155Z,101351.44
2023-05-10T17:40:15.044Z,101345.97
2023-05-10T17:42:41.982Z,101354.16
2023-05-10T17:45:09.161Z,101352.28
2023-05-10T17:47:35.810Z,101356.88
2023-05-10T17:50:02.343Z,101360.69
2023-05-10T17:52:31.389Z,101351.72
2023-05-10T17:54:59.523Z,101354.16
2023-05-10T17:57:26.144Z,101361.50
2023-05-10T17:59:52.670Z,101359.59
2023-05-10T18:02:19.205Z,101356.06
2023-05-10T18:04:45.994Z,101361.25
2023-05-10T18:07:12.665Z,101359.59
2023-05-10T18:09:39.232Z,101355.25
2023-05-10T18:12:06.157Z,101362.31
2023-05-10T18:14:40.538Z,101360.69
2023-05-10T18:17:08.042Z,101358.78
2023-05-10T18:19:34.778Z,101365.34
2023-05-10T18:22:01.276Z,101356.88
2023-05-10T18:24:38.264Z,101365.34
2023-05-10T18:27:09.665Z,101361.50
2023-05-10T18:29:37.033Z,101377.06
2023-05-10T18:32:03.715Z,101371.59
2023-05-10T18:34:30.392Z,101368.06
2023-05-10T18:36:57.077Z,101372.41
2023-05-10T18:39:24.349Z,101371.59
2023-05-10T18:41:51.103Z,101377.88
2023-05-10T18:44:18.940Z,101375.94
2023-05-10T18:46:45.664Z,101388.75
2023-05-10T18:49:12.202Z,101382.50
2023-05-10T18:51:38.720Z,101389.88
2023-05-10T18:54:05.248Z,101387.94
2023-05-10T18:56:31.760Z,101393.41
2023-05-10T18:58:58.352Z,101390.16
2023-05-10T19:01:25.073Z,101383.84
2023-05-10T19:03:51.707Z,101391.22
2023-05-10T19:06:18.229Z,101396.41
2023-05-10T19:08:44.749Z,101392.88
2023-05-10T19:11:11.311Z,101399.94
2023-05-10T19:13:37.985Z,101397.47
2023-05-10T19:16:15.866Z,101402.94
2023-05-10T19:18:43.644Z,101403.22
2023-05-10T19:21:11.415Z,101406.75
2023-05-10T19:23:40.412Z,101406.50
2023-05-10T19:26:07.341Z,101409.22
2023-05-10T19:28:36.724Z,101411.94
2023-05-10T19:31:03.586Z,101409.47
2023-05-10T19:33:30.301Z,101412.50
2023-05-10T19:35:56.798Z,101416.84
2023-05-10T19:38:24.324Z,101419.56
2023-05-10T19:40:57.483Z,101417.94
2023-05-10T19:43:28.842Z,101420.66
2023-05-10T19:45:59.190Z,101431.56
2023-05-10T19:48:26.480Z,101431.81
2023-05-10T19:50:53.897Z,101437.00
2023-05-10T19:53:20.385Z,101433.47
2023-05-10T19:55:46.967Z,101428.28
2023-05-10T19:58:13.512Z,101433.72
2023-05-10T20:00:40.070Z,101434.53
2023-05-10T20:03:09.157Z,101430.19
2023-05-10T20:05:35.995Z,101429.09
2023-05-10T20:08:02.555Z,101437.56
2023-05-10T20:10:29.180Z,101434.00
2023-05-10T20:12:55.717Z,101439.47
2023-05-10T20:15:23.311Z,101431.28
2023-05-10T20:17:52.253Z,101434.00
2023-05-10T20:20:20.231Z,101426.06
2023-05-10T20:22:50.160Z,101438.66
2023-05-10T20:25:18.029Z,101440.53
2023-05-10T20:27:45.120Z,101435.94
2023-05-10T20:30:12.341Z,101442.41
2023-05-10T20:32:39.026Z,101439.69
2023-05-10T20:35:06.238Z,101442.69
2023-05-10T20:37:32.806Z,101447.31
2023-05-10T20:39:59.367Z,101438.34
2023-05-10T20:42:25.964Z,101433.69
2023-05-10T20:44:52.468Z,101434.81
2023-05-10T20:47:19.369Z,101441.31
2023-05-10T20:49:46.256Z,101435.88
2023-05-10T20:52:12.848Z,101437.78
2023-05-10T20:54:39.379Z,101436.97
2023-05-10T20:57:06.049Z,101436.16
2023-05-10T20:59:32.600Z,101435.88
2023-05-10T21:01:59.302Z,101444.59
2023-05-10T21:04:26.030Z,101437.78
2023-05-10T21:06:53.253Z,101444.31
2023-05-10T21:09:19.908Z,101434.25
2023-05-10T21:11:46.594Z,101445.44
2023-05-10T21:14:13.173Z,101438.06
2023-05-10T21:16:39.953Z,101445.13
2023-05-10T21:19:07.509Z,101447.06
2023-05-10T21:21:34.563Z,101435.59
2023-05-10T21:24:01.183Z,101440.22
2023-05-10T21:26:27.755Z,101436.69
2023-05-10T21:28:54.442Z,101442.41
2023-05-10T21:31:21.408Z,101428.81
2023-05-10T21:33:47.946Z,101439.69
2023-05-10T21:36:14.509Z,101430.44
2023-05-10T21:38:42.304Z,101427.13
2023-05-10T21:41:08.850Z,101429.88
2023-05-10T21:43:35.520Z,101435.06
2023-05-10T21:46:02.120Z,101439.13
2023-05-10T21:48:28.664Z,101435.06
2023-05-10T21:50:55.266Z,101436.16
2023-05-10T21:53:22.409Z,101432.88
2023-05-10T21:55:49.049Z,101440.22
2023-05-10T21:58:15.781Z,101436.16
2023-05-10T22:00:42.283Z,101436.16
2023-05-10T22:03:08.958Z,101433.69
2023-05-10T22:05:35.664Z,101431.25
2023-05-10T22:08:02.205Z,101428.53
2023-05-10T22:10:28.925Z,101431.25
2023-05-10T22:12:55.530Z,101427.97
2023-05-10T22:15:22.253Z,101440.50
2023-05-10T22:17:48.950Z,101433.41
2023-05-10T22:20:15.792Z,101440.75
2023-05-10T22:22:42.535Z,101435.06
2023-05-10T22:25:09.328Z,101426.06
2023-05-10T22:27:35.972Z,101431.78
2023-05-10T22:30:03.908Z,101433.41
2023-05-10T22:32:31.633Z,101437.22
2023-05-10T22:34:58.346Z,101434.22
2023-05-10T22:37:24.864Z,101438.31
2023-05-10T22:39:51.465Z,101430.16
2023-05-10T22:42:18.001Z,101436.66
2023-05-10T22:44:44.563Z,101436.13
2023-05-10T22:47:11.260Z,101435.84
2023-05-10T22:49:38.067Z,101442.41
2023-05-10T22:52:04.824Z,101432.59
2023-05-10T22:54:31.421Z,101436.13
2023-05-10T22:56:58.213Z,101436.38
2023-05-10T22:59:24.763Z,101440.78
2023-05-10T23:01:51.384Z,101443.22
2023-05-10T23:04:18.268Z,101437.47
2023-05-10T23:06:45.866Z,101439.13
2023-05-10T23:09:12.638Z,101437.47
2023-05-10T23:11:39.492Z,101441.84
2023-05-10T23:14:06.153Z,101440.50
2023-05-10T23:16:32.718Z,101433.94
2023-05-10T23:18:59.344Z,101435.03
2023-05-10T23:21:25.959Z,101436.13
2023-05-10T23:23:52.799Z,101429.84
2023-05-10T23:26:19.696Z,101435.56
2023-05-10T23:28:46.224Z,101422.53
2023-05-10T23:31:12.742Z,101434.47
2023-05-10T23:33:39.212Z,101428.22
2023-05-10T23:36:05.939Z,101429.03
2023-05-10T23:38:32.781Z,101428.22
2023-05-10T23:40:59.393Z,101432.03
2023-05-10T23:43:25.975Z,101427.41
2023-05-10T23:45:56.564Z,101436.69
2023-05-10T23:48:23.548Z,101435.84
2023-05-10T23:50:50.674Z,101436.69
2023-05-10T23:53:17.226Z,101441.31
2023-05-10T23:55:43.885Z,101445.09
2023-05-10T23:58:10.698Z,101447.00
